sensor_id;sensor_type;location;lat;lon;timestamp;P1;durP1;ratioP1;P2;durP2;ratioP2
17773;SDS011;9011;33.236;-97.118;2022-09-21T00:01:30;2.55;;;1.15;;
17773;SDS011;9011;33.236;-97.118;2022-09-21T00:04:00;5.63;;;1.33;;
17773;SDS011;9011;33.236;-97.118;2022-09-21T00:06:30;1.45;;;1.05;;
17773;SDS011;9011;33.236;-97.118;2022-09-21T00:09:02;1.58;;;1.00;;
17773;SDS011;9011;33.236;-97.118;2022-09-21T00:11:34;1.90;;;0.90;;
17773;SDS011;9011;33.236;-97.118;2022-09-21T00:14:04;1.80;;;1.20;;
17773;SDS011;9011;33.236;-97.118;2022-09-21T00:16:35;2.53;;;1.23;;
17773;SDS011;9011;33.236;-97.118;2022-09-21T00:19:04;1.08;;;0.90;;
17773;SDS011;9011;33.236;-97.118;2022-09-21T00:21:33;1.92;;;1.05;;
17773;SDS011;9011;33.236;-97.118;2022-09-21T00:24:02;1.90;;;1.30;;
17773;SDS011;9011;33.236;-97.118;2022-09-21T00:26:31;1.27;;;1.17;;
17773;SDS011;9011;33.236;-97.118;2022-09-21T00:29:02;3.47;;;1.15;;
17773;SDS011;9011;33.236;-97.118;2022-09-21T00:31:31;2.00;;;1.17;;
17773;SDS011;9011;33.236;-97.118;2022-09-21T00:34:00;3.55;;;1.30;;
17773;SDS011;9011;33.236;-97.118;2022-09-21T00:36:32;3.00;;;1.30;;
17773;SDS011;9011;33.236;-97.118;2022-09-21T00:39:00;3.05;;;1.30;;
17773;SDS011;9011;33.236;-97.118;2022-09-21T00:41:30;1.77;;;1.23;;
17773;SDS011;9011;33.236;-97.118;2022-09-21T00:47:05;2.60;;;1.17;;
17773;SDS011;9011;33.236;-97.118;2022-09-21T00:49:37;1.27;;;1.17;;
17773;SDS011;9011;33.236;-97.118;2022-09-21T00:52:07;1.95;;;1.35;;
17773;SDS011;9011;33.236;-97.118;2022-09-21T00:54:40;1.17;;;1.08;;
17773;SDS011;9011;33.236;-97.118;2022-09-21T00:57:13;4.15;;;1.08;;
17773;SDS011;9011;33.236;-97.118;2022-09-21T00:59:48;5.32;;;1.30;;
17773;SDS011;9011;33.236;-97.118;2022-09-21T01:02:18;3.10;;;1.23;;
17773;SDS011;9011;33.236;-97.118;2022-09-21T01:04:50;2.20;;;1.27;;
17773;SDS011;9011;33.236;-97.118;2022-09-21T01:07:20;2.17;;;1.20;;
17773;SDS011;9011;33.236;-97.118;2022-09-21T01:09:54;1.30;;;1.20;;
17773;SDS011;9011;33.236;-97.118;2022-09-21T01:12:34;2.42;;;1.27;;
17773;SDS011;9011;33.236;-97.118;2022-09-21T01:15:18;2.42;;;1.17;;
17773;SDS011;9011;33.236;-97.118;2022-09-21T01:17:58;1.58;;;1.20;;
17773;SDS011;9011;33.236;-97.118;2022-09-21T01:29:42;1.73;;;1.45;;
17773;SDS011;9011;33.236;-97.118;2022-09-21T01:32:15;1.27;;;1.13;;
17773;SDS011;9011;33.236;-97.118;2022-09-21T01:34:49;1.27;;;1.17;;
17773;SDS011;9011;33.236;-97.118;2022-09-21T01:37:21;2.75;;;1.38;;
17773;SDS011;9011;33.236;-97.118;2022-09-21T01:40:02;1.25;;;1.15;;
17773;SDS011;9011;33.236;-97.118;2022-09-21T01:42:36;2.58;;;1.25;;
17773;SDS011;9011;33.236;-97.118;2022-09-21T01:45:09;2.00;;;1.30;;
17773;SDS011;9011;33.236;-97.118;2022-09-21T01:47:42;2.00;;;1.27;;
17773;SDS011;9011;33.236;-97.118;2022-09-21T01:50:15;1.50;;;1.20;;
17773;SDS011;9011;33.236;-97.118;2022-09-21T01:52:47;1.27;;;1.02;;
17773;SDS011;9011;33.236;-97.118;2022-09-21T01:55:21;2.25;;;1.10;;
17773;SDS011;9011;33.236;-97.118;2022-09-21T01:57:58;1.48;;;1.25;;
17773;SDS011;9011;33.236;-97.118;2022-09-21T02:00:33;1.50;;;1.20;;
17773;SDS011;9011;33.236;-97.118;2022-09-21T02:03:03;2.55;;;1.35;;
17773;SDS011;9011;33.236;-97.118;2022-09-21T02:05:37;2.47;;;1.33;;
17773;SDS011;9011;33.236;-97.118;2022-09-21T02:08:06;1.80;;;1.00;;
17773;SDS011;9011;33.236;-97.118;2022-09-21T02:10:37;2.30;;;1.52;;
17773;SDS011;9011;33.236;-97.118;2022-09-21T02:13:09;1.73;;;1.38;;
17773;SDS011;9011;33.236;-97.118;2022-09-21T02:15:43;2.72;;;1.35;;
17773;SDS011;9011;33.236;-97.118;2022-09-21T02:18:25;4.43;;;1.48;;
17773;SDS011;9011;33.236;-97.118;2022-09-21T02:21:07;2.70;;;1.30;;
17773;SDS011;9011;33.236;-97.118;2022-09-21T02:23:46;2.85;;;1.38;;
17773;SDS011;9011;33.236;-97.118;2022-09-21T02:26:22;1.20;;;1.10;;
17773;SDS011;9011;33.236;-97.118;2022-09-21T02:28:57;1.35;;;1.23;;
17773;SDS011;9011;33.236;-97.118;2022-09-21T02:31:45;2.28;;;1.40;;
17773;SDS011;9011;33.236;-97.118;2022-09-21T02:34:31;1.80;;;1.40;;
17773;SDS011;9011;33.236;-97.118;2022-09-21T02:37:18;2.75;;;1.20;;
17773;SDS011;9011;33.236;-97.118;2022-09-21T02:40:20;3.55;;;1.50;;
17773;SDS011;9011;33.236;-97.118;2022-09-21T02:42:55;1.63;;;1.30;;
17773;SDS011;9011;33.236;-97.118;2022-09-21T02:45:29;2.33;;;1.15;;
17773;SDS011;9011;33.236;-97.118;2022-09-21T02:48:08;1.60;;;1.30;;
17773;SDS011;9011;33.236;-97.118;2022-09-21T02:50:42;3.30;;;1.50;;
17773;SDS011;9011;33.236;-97.118;2022-09-21T02:53:14;2.22;;;1.30;;
17773;SDS011;9011;33.236;-97.118;2022-09-21T02:55:47;3.08;;;1.55;;
17773;SDS011;9011;33.236;-97.118;2022-09-21T02:58:16;3.22;;;1.50;;
17773;SDS011;9011;33.236;-97.118;2022-09-21T03:00:48;2.50;;;1.30;;
17773;SDS011;9011;33.236;-97.118;2022-09-21T03:03:19;2.97;;;1.52;;
17773;SDS011;9011;33.236;-97.118;2022-09-21T03:05:50;4.28;;;1.50;;
17773;SDS011;9011;33.236;-97.118;2022-09-21T03:08:19;2.40;;;1.20;;
17773;SDS011;9011;33.236;-97.118;2022-09-21T03:10:48;2.25;;;1.58;;
17773;SDS011;9011;33.236;-97.118;2022-09-21T03:13:17;1.98;;;1.40;;
17773;SDS011;9011;33.236;-97.118;2022-09-21T03:15:48;2.05;;;1.58;;
17773;SDS011;9011;33.236;-97.118;2022-09-21T03:18:16;1.58;;;1.48;;
17773;SDS011;9011;33.236;-97.118;2022-09-21T03:20:51;2.22;;;1.35;;
17773;SDS011;9011;33.236;-97.118;2022-09-21T03:23:23;2.97;;;1.80;;
17773;SDS011;9011;33.236;-97.118;2022-09-21T03:25:54;1.60;;;1.50;;
17773;SDS011;9011;33.236;-97.118;2022-09-21T03:28:25;3.08;;;1.35;;
17773;SDS011;9011;33.236;-97.118;2022-09-21T03:30:57;1.50;;;1.27;;
17773;SDS011;9011;33.236;-97.118;2022-09-21T03:33:30;2.25;;;1.70;;
17773;SDS011;9011;33.236;-97.118;2022-09-21T03:35:59;1.88;;;1.42;;
17773;SDS011;9011;33.236;-97.118;2022-09-21T03:38:27;1.85;;;1.65;;
17773;SDS011;9011;33.236;-97.118;2022-09-21T03:40:56;2.92;;;1.60;;
17773;SDS011;9011;33.236;-97.118;2022-09-21T03:43:25;2.33;;;1.70;;
17773;SDS011;9011;33.236;-97.118;2022-09-21T03:45:53;1.65;;;1.52;;
17773;SDS011;9011;33.236;-97.118;2022-09-21T03:48:22;1.77;;;1.40;;
17773;SDS011;9011;33.236;-97.118;2022-09-21T03:50:52;2.15;;;1.30;;
17773;SDS011;9011;33.236;-97.118;2022-09-21T03:53:21;2.38;;;1.67;;
17773;SDS011;9011;33.236;-97.118;2022-09-21T03:55:49;3.58;;;1.55;;
17773;SDS011;9011;33.236;-97.118;2022-09-21T03:58:17;2.83;;;1.50;;
17773;SDS011;9011;33.236;-97.118;2022-09-21T04:00:46;5.22;;;1.85;;
17773;SDS011;9011;33.236;-97.118;2022-09-21T04:03:14;2.50;;;1.75;;
17773;SDS011;9011;33.236;-97.118;2022-09-21T04:05:43;1.80;;;1.70;;
17773;SDS011;9011;33.236;-97.118;2022-09-21T04:08:13;3.30;;;1.90;;
17773;SDS011;9011;33.236;-97.118;2022-09-21T04:10:41;1.50;;;1.40;;
17773;SDS011;9011;33.236;-97.118;2022-09-21T04:13:09;2.17;;;1.98;;
17773;SDS011;9011;33.236;-97.118;2022-09-21T04:15:38;2.35;;;1.63;;
17773;SDS011;9011;33.236;-97.118;2022-09-21T04:18:06;2.47;;;1.67;;
17773;SDS011;9011;33.236;-97.118;2022-09-21T04:20:39;1.58;;;1.45;;
17773;SDS011;9011;33.236;-97.118;2022-09-21T04:23:08;2.25;;;1.42;;
17773;SDS011;9011;33.236;-97.118;2022-09-21T04:25:38;2.75;;;1.50;;
17773;SDS011;9011;33.236;-97.118;2022-09-21T04:28:07;2.40;;;1.77;;
17773;SDS011;9011;33.236;-97.118;2022-09-21T04:30:35;2.72;;;1.92;;
17773;SDS011;9011;33.236;-97.118;2022-09-21T04:33:04;1.65;;;1.55;;
17773;SDS011;9011;33.236;-97.118;2022-09-21T04:35:33;2.15;;;2.00;;
17773;SDS011;9011;33.236;-97.118;2022-09-21T04:38:01;2.15;;;1.75;;
17773;SDS011;9011;33.236;-97.118;2022-09-21T04:40:30;1.95;;;1.75;;
17773;SDS011;9011;33.236;-97.118;2022-09-21T04:43:00;1.75;;;1.60;;
17773;SDS011;9011;33.236;-97.118;2022-09-21T04:45:29;1.85;;;1.60;;
17773;SDS011;9011;33.236;-97.118;2022-09-21T04:47:59;1.83;;;1.63;;
17773;SDS011;9011;33.236;-97.118;2022-09-21T04:50:30;1.63;;;1.50;;
17773;SDS011;9011;33.236;-97.118;2022-09-21T04:52:58;2.53;;;1.58;;
17773;SDS011;9011;33.236;-97.118;2022-09-21T04:55:27;3.35;;;1.77;;
17773;SDS011;9011;33.236;-97.118;2022-09-21T04:57:55;2.47;;;1.90;;
17773;SDS011;9011;33.236;-97.118;2022-09-21T05:00:26;2.15;;;1.77;;
17773;SDS011;9011;33.236;-97.118;2022-09-21T05:02:55;1.63;;;1.52;;
17773;SDS011;9011;33.236;-97.118;2022-09-21T05:05:27;2.15;;;1.58;;
17773;SDS011;9011;33.236;-97.118;2022-09-21T05:07:56;2.13;;;1.83;;
17773;SDS011;9011;33.236;-97.118;2022-09-21T05:10:25;3.67;;;1.70;;
17773;SDS011;9011;33.236;-97.118;2022-09-21T05:12:52;2.30;;;1.77;;
17773;SDS011;9011;33.236;-97.118;2022-09-21T05:15:22;2.97;;;1.75;;
17773;SDS011;9011;33.236;-97.118;2022-09-21T05:17:52;3.97;;;2.10;;
17773;SDS011;9011;33.236;-97.118;2022-09-21T05:20:21;3.58;;;1.73;;
17773;SDS011;9011;33.236;-97.118;2022-09-21T05:22:49;3.75;;;2.10;;
17773;SDS011;9011;33.236;-97.118;2022-09-21T05:25:17;2.00;;;1.90;;
17773;SDS011;9011;33.236;-97.118;2022-09-21T05:27:45;2.30;;;2.10;;
17773;SDS011;9011;33.236;-97.118;2022-09-21T05:30:14;2.53;;;1.63;;
17773;SDS011;9011;33.236;-97.118;2022-09-21T05:32:46;4.22;;;1.73;;
17773;SDS011;9011;33.236;-97.118;2022-09-21T05:35:23;1.75;;;1.65;;
17773;SDS011;9011;33.236;-97.118;2022-09-21T05:37:56;1.95;;;1.80;;
17773;SDS011;9011;33.236;-97.118;2022-09-21T05:40:30;5.07;;;1.80;;
17773;SDS011;9011;33.236;-97.118;2022-09-21T05:42:59;2.00;;;1.88;;
17773;SDS011;9011;33.236;-97.118;2022-09-21T05:45:28;2.97;;;1.73;;
17773;SDS011;9011;33.236;-97.118;2022-09-21T05:48:03;2.40;;;1.77;;
17773;SDS011;9011;33.236;-97.118;2022-09-21T05:50:43;1.85;;;1.75;;
17773;SDS011;9011;33.236;-97.118;2022-09-21T05:53:25;1.85;;;1.75;;
17773;SDS011;9011;33.236;-97.118;2022-09-21T05:56:11;1.60;;;1.50;;
17773;SDS011;9011;33.236;-97.118;2022-09-21T05:59:11;1.83;;;1.65;;
17773;SDS011;9011;33.236;-97.118;2022-09-21T06:05:20;2.97;;;1.98;;
17773;SDS011;9011;33.236;-97.118;2022-09-21T06:08:24;2.20;;;1.85;;
17773;SDS011;9011;33.236;-97.118;2022-09-21T06:11:23;1.63;;;1.52;;
17773;SDS011;9011;33.236;-97.118;2022-09-21T06:14:18;1.92;;;1.83;;
17773;SDS011;9011;33.236;-97.118;2022-09-21T06:16:52;4.43;;;2.33;;
17773;SDS011;9011;33.236;-97.118;2022-09-21T06:19:26;4.60;;;2.17;;
17773;SDS011;9011;33.236;-97.118;2022-09-21T06:22:04;2.85;;;1.80;;
17773;SDS011;9011;33.236;-97.118;2022-09-21T06:24:39;2.88;;;1.80;;
17773;SDS011;9011;33.236;-97.118;2022-09-21T06:27:07;2.65;;;2.00;;
17773;SDS011;9011;33.236;-97.118;2022-09-21T06:29:36;1.90;;;1.80;;
17773;SDS011;9011;33.236;-97.118;2022-09-21T06:32:04;3.42;;;1.70;;
17773;SDS011;9011;33.236;-97.118;2022-09-21T06:34:33;4.15;;;1.70;;
17773;SDS011;9011;33.236;-97.118;2022-09-21T06:37:04;1.90;;;1.80;;
17773;SDS011;9011;33.236;-97.118;2022-09-21T06:39:32;2.03;;;1.70;;
17773;SDS011;9011;33.236;-97.118;2022-09-21T06:42:00;2.20;;;2.03;;
17773;SDS011;9011;33.236;-97.118;2022-09-21T06:44:29;2.83;;;1.73;;
17773;SDS011;9011;33.236;-97.118;2022-09-21T06:46:57;3.13;;;1.88;;
17773;SDS011;9011;33.236;-97.118;2022-09-21T06:49:26;2.25;;;1.80;;
17773;SDS011;9011;33.236;-97.118;2022-09-21T06:51:54;2.15;;;1.95;;
17773;SDS011;9011;33.236;-97.118;2022-09-21T06:54:24;2.05;;;1.85;;
17773;SDS011;9011;33.236;-97.118;2022-09-21T06:56:53;2.40;;;1.63;;
17773;SDS011;9011;33.236;-97.118;2022-09-21T06:59:21;2.08;;;1.98;;
17773;SDS011;9011;33.236;-97.118;2022-09-21T07:01:49;2.33;;;2.10;;
17773;SDS011;9011;33.236;-97.118;2022-09-21T07:04:22;2.85;;;2.10;;
17773;SDS011;9011;33.236;-97.118;2022-09-21T07:06:51;3.15;;;2.40;;
17773;SDS011;9011;33.236;-97.118;2022-09-21T07:09:19;2.65;;;2.10;;
17773;SDS011;9011;33.236;-97.118;2022-09-21T07:12:01;2.78;;;2.13;;
17773;SDS011;9011;33.236;-97.118;2022-09-21T07:14:32;2.08;;;1.88;;
17773;SDS011;9011;33.236;-97.118;2022-09-21T07:17:00;1.90;;;1.80;;
17773;SDS011;9011;33.236;-97.118;2022-09-21T07:19:31;2.88;;;1.80;;
17773;SDS011;9011;33.236;-97.118;2022-09-21T07:22:04;3.42;;;2.40;;
17773;SDS011;9011;33.236;-97.118;2022-09-21T07:24:32;2.33;;;2.13;;
17773;SDS011;9011;33.236;-97.118;2022-09-21T07:27:03;1.90;;;1.80;;
17773;SDS011;9011;33.236;-97.118;2022-09-21T07:29:31;2.30;;;2.10;;
17773;SDS011;9011;33.236;-97.118;2022-09-21T07:32:00;3.15;;;2.00;;
17773;SDS011;9011;33.236;-97.118;2022-09-21T07:34:28;4.05;;;2.63;;
17773;SDS011;9011;33.236;-97.118;2022-09-21T07:37:00;3.22;;;2.25;;
17773;SDS011;9011;33.236;-97.118;2022-09-21T07:39:28;2.20;;;1.83;;
17773;SDS011;9011;33.236;-97.118;2022-09-21T07:41:57;2.60;;;2.00;;
17773;SDS011;9011;33.236;-97.118;2022-09-21T07:44:26;2.33;;;2.13;;
17773;SDS011;9011;33.236;-97.118;2022-09-21T07:46:55;2.50;;;2.30;;
17773;SDS011;9011;33.236;-97.118;2022-09-21T07:49:26;2.92;;;2.17;;
17773;SDS011;9011;33.236;-97.118;2022-09-21T07:51:54;3.15;;;2.63;;
17773;SDS011;9011;33.236;-97.118;2022-09-21T07:54:23;2.88;;;2.10;;
17773;SDS011;9011;33.236;-97.118;2022-09-21T07:56:54;2.55;;;2.35;;
17773;SDS011;9011;33.236;-97.118;2022-09-21T07:59:41;3.50;;;2.17;;
17773;SDS011;9011;33.236;-97.118;2022-09-21T08:02:09;2.67;;;2.28;;
17773;SDS011;9011;33.236;-97.118;2022-09-21T08:04:37;2.45;;;2.10;;
17773;SDS011;9011;33.236;-97.118;2022-09-21T08:07:06;2.38;;;2.13;;
17773;SDS011;9011;33.236;-97.118;2022-09-21T08:09:34;4.47;;;2.28;;
17773;SDS011;9011;33.236;-97.118;2022-09-21T08:12:03;4.43;;;2.42;;
17773;SDS011;9011;33.236;-97.118;2022-09-21T08:14:32;4.03;;;2.47;;
17773;SDS011;9011;33.236;-97.118;2022-09-21T08:17:02;2.45;;;2.20;;
17773;SDS011;9011;33.236;-97.118;2022-09-21T08:19:31;3.63;;;2.00;;
17773;SDS011;9011;33.236;-97.118;2022-09-21T08:22:00;2.47;;;2.28;;
17773;SDS011;9011;33.236;-97.118;2022-09-21T08:24:31;2.83;;;1.95;;
17773;SDS011;9011;33.236;-97.118;2022-09-21T08:27:00;2.67;;;2.22;;
17773;SDS011;9011;33.236;-97.118;2022-09-21T08:29:32;2.80;;;2.60;;
17773;SDS011;9011;33.236;-97.118;2022-09-21T08:32:05;2.50;;;2.30;;
17773;SDS011;9011;33.236;-97.118;2022-09-21T08:34:34;2.38;;;2.17;;
17773;SDS011;9011;33.236;-97.118;2022-09-21T08:37:03;2.38;;;2.08;;
17773;SDS011;9011;33.236;-97.118;2022-09-21T08:39:31;3.03;;;2.30;;
17773;SDS011;9011;33.236;-97.118;2022-09-21T08:42:03;2.97;;;2.78;;
17773;SDS011;9011;33.236;-97.118;2022-09-21T08:44:47;2.42;;;2.22;;
17773;SDS011;9011;33.236;-97.118;2022-09-21T08:47:22;2.75;;;2.30;;
17773;SDS011;9011;33.236;-97.118;2022-09-21T08:49:59;2.60;;;2.40;;
17773;SDS011;9011;33.236;-97.118;2022-09-21T08:52:29;2.72;;;2.53;;
17773;SDS011;9011;33.236;-97.118;2022-09-21T08:55:00;3.40;;;2.70;;
17773;SDS011;9011;33.236;-97.118;2022-09-21T08:57:32;2.60;;;2.40;;
17773;SDS011;9011;33.236;-97.118;2022-09-21T09:00:06;2.70;;;2.25;;
17773;SDS011;9011;33.236;-97.118;2022-09-21T09:02:45;2.45;;;2.25;;
17773;SDS011;9011;33.236;-97.118;2022-09-21T09:05:51;3.50;;;2.42;;
17773;SDS011;9011;33.236;-97.118;2022-09-21T09:11:43;3.28;;;2.40;;
17773;SDS011;9011;33.236;-97.118;2022-09-21T09:14:29;2.60;;;2.40;;
17773;SDS011;9011;33.236;-97.118;2022-09-21T09:17:31;4.35;;;2.55;;
17773;SDS011;9011;33.236;-97.118;2022-09-21T09:20:09;4.18;;;2.83;;
17773;SDS011;9011;33.236;-97.118;2022-09-21T09:22:42;3.72;;;2.35;;
17773;SDS011;9011;33.236;-97.118;2022-09-21T09:25:15;2.25;;;2.03;;
17773;SDS011;9011;33.236;-97.118;2022-09-21T09:27:50;5.38;;;2.80;;
17773;SDS011;9011;33.236;-97.118;2022-09-21T09:30:23;5.53;;;2.60;;
17773;SDS011;9011;33.236;-97.118;2022-09-21T09:32:54;3.13;;;2.47;;
17773;SDS011;9011;33.236;-97.118;2022-09-21T09:35:29;2.28;;;2.08;;
17773;SDS011;9011;33.236;-97.118;2022-09-21T09:38:03;2.47;;;2.22;;
17773;SDS011;9011;33.236;-97.118;2022-09-21T09:40:47;4.35;;;2.72;;
17773;SDS011;9011;33.236;-97.118;2022-09-21T09:43:33;2.53;;;2.08;;
17773;SDS011;9011;33.236;-97.118;2022-09-21T09:46:11;2.42;;;2.22;;
17773;SDS011;9011;33.236;-97.118;2022-09-21T09:51:47;3.15;;;2.30;;
17773;SDS011;9011;33.236;-97.118;2022-09-21T09:54:16;1.95;;;1.77;;
17773;SDS011;9011;33.236;-97.118;2022-09-21T09:56:47;3.88;;;2.10;;
17773;SDS011;9011;33.236;-97.118;2022-09-21T09:59:18;3.58;;;2.08;;
17773;SDS011;9011;33.236;-97.118;2022-09-21T10:02:00;2.67;;;1.95;;
17773;SDS011;9011;33.236;-97.118;2022-09-21T10:04:30;4.80;;;2.25;;
17773;SDS011;9011;33.236;-97.118;2022-09-21T10:07:02;2.63;;;1.80;;
17773;SDS011;9011;33.236;-97.118;2022-09-21T10:09:43;2.70;;;2.22;;
17773;SDS011;9011;33.236;-97.118;2022-09-21T10:12:14;2.13;;;2.03;;
17773;SDS011;9011;33.236;-97.118;2022-09-21T10:14:47;4.72;;;2.67;;
17773;SDS011;9011;33.236;-97.118;2022-09-21T10:17:17;4.63;;;2.30;;
17773;SDS011;9011;33.236;-97.118;2022-09-21T10:19:46;3.38;;;2.17;;
17773;SDS011;9011;33.236;-97.118;2022-09-21T10:22:17;3.38;;;2.50;;
17773;SDS011;9011;33.236;-97.118;2022-09-21T10:24:55;2.15;;;1.92;;
17773;SDS011;9011;33.236;-97.118;2022-09-21T10:27:26;3.80;;;2.28;;
17773;SDS011;9011;33.236;-97.118;2022-09-21T10:30:02;3.17;;;2.17;;
17773;SDS011;9011;33.236;-97.118;2022-09-21T10:32:32;4.13;;;2.00;;
17773;SDS011;9011;33.236;-97.118;2022-09-21T10:35:13;9.27;;;2.95;;
17773;SDS011;9011;33.236;-97.118;2022-09-21T10:37:47;3.05;;;2.00;;
17773;SDS011;9011;33.236;-97.118;2022-09-21T10:40:34;7.03;;;2.63;;
17773;SDS011;9011;33.236;-97.118;2022-09-21T10:43:04;5.82;;;2.45;;
17773;SDS011;9011;33.236;-97.118;2022-09-21T10:45:51;2.88;;;2.58;;
17773;SDS011;9011;33.236;-97.118;2022-09-21T10:48:21;5.65;;;2.30;;
17773;SDS011;9011;33.236;-97.118;2022-09-21T10:50:55;5.32;;;2.67;;
17773;SDS011;9011;33.236;-97.118;2022-09-21T10:53:32;4.03;;;2.60;;
17773;SDS011;9011;33.236;-97.118;2022-09-21T10:56:03;2.50;;;2.30;;
17773;SDS011;9011;33.236;-97.118;2022-09-21T10:58:34;2.50;;;2.20;;
17773;SDS011;9011;33.236;-97.118;2022-09-21T11:01:11;3.72;;;2.60;;
17773;SDS011;9011;33.236;-97.118;2022-09-21T11:03:43;3.70;;;2.40;;
17773;SDS011;9011;33.236;-97.118;2022-09-21T11:06:18;7.65;;;2.95;;
17773;SDS011;9011;33.236;-97.118;2022-09-21T11:08:54;6.63;;;2.65;;
17773;SDS011;9011;33.236;-97.118;2022-09-21T11:14:18;3.83;;;2.00;;
17773;SDS011;9011;33.236;-97.118;2022-09-21T11:16:53;12.77;;;2.65;;
17773;SDS011;9011;33.236;-97.118;2022-09-21T11:19:27;7.45;;;2.78;;
17773;SDS011;9011;33.236;-97.118;2022-09-21T11:22:05;2.45;;;2.25;;
17773;SDS011;9011;33.236;-97.118;2022-09-21T11:24:43;3.78;;;2.53;;
17773;SDS011;9011;33.236;-97.118;2022-09-21T11:27:17;2.53;;;2.25;;
17773;SDS011;9011;33.236;-97.118;2022-09-21T11:29:52;3.10;;;2.30;;
17773;SDS011;9011;33.236;-97.118;2022-09-21T11:35:38;3.20;;;2.53;;
17773;SDS011;9011;33.236;-97.118;2022-09-21T11:38:17;2.97;;;2.40;;
17773;SDS011;9011;33.236;-97.118;2022-09-21T11:41:05;5.13;;;2.70;;
17773;SDS011;9011;33.236;-97.118;2022-09-21T11:46:37;6.10;;;2.80;;
17773;SDS011;9011;33.236;-97.118;2022-09-21T11:49:19;2.42;;;2.22;;
17773;SDS011;9011;33.236;-97.118;2022-09-21T11:52:02;8.82;;;2.67;;
17773;SDS011;9011;33.236;-97.118;2022-09-21T11:57:51;5.13;;;2.50;;
17773;SDS011;9011;33.236;-97.118;2022-09-21T12:00:24;7.88;;;2.63;;
17773;SDS011;9011;33.236;-97.118;2022-09-21T12:05:57;4.03;;;2.30;;
17773;SDS011;9011;33.236;-97.118;2022-09-21T12:08:47;7.63;;;2.40;;
17773;SDS011;9011;33.236;-97.118;2022-09-21T12:11:27;4.68;;;2.72;;
17773;SDS011;9011;33.236;-97.118;2022-09-21T12:14:03;2.78;;;2.25;;
17773;SDS011;9011;33.236;-97.118;2022-09-21T12:16:44;3.10;;;2.55;;
17773;SDS011;9011;33.236;-97.118;2022-09-21T12:19:23;2.75;;;2.03;;
17773;SDS011;9011;33.236;-97.118;2022-09-21T12:21:59;3.33;;;2.50;;
17773;SDS011;9011;33.236;-97.118;2022-09-21T12:24:32;2.53;;;2.05;;
17773;SDS011;9011;33.236;-97.118;2022-09-21T12:27:07;2.67;;;2.25;;
17773;SDS011;9011;33.236;-97.118;2022-09-21T12:29:42;4.13;;;2.75;;
17773;SDS011;9011;33.236;-97.118;2022-09-21T12:32:16;4.60;;;2.15;;
17773;SDS011;9011;33.236;-97.118;2022-09-21T12:34:48;5.70;;;2.70;;
17773;SDS011;9011;33.236;-97.118;2022-09-21T12:37:22;4.88;;;2.67;;
17773;SDS011;9011;33.236;-97.118;2022-09-21T12:39:57;5.57;;;2.72;;
17773;SDS011;9011;33.236;-97.118;2022-09-21T12:42:32;6.95;;;2.58;;
17773;SDS011;9011;33.236;-97.118;2022-09-21T12:45:11;3.05;;;2.40;;
17773;SDS011;9011;33.236;-97.118;2022-09-21T12:47:45;7.07;;;2.83;;
17773;SDS011;9011;33.236;-97.118;2022-09-21T12:50:20;7.15;;;3.00;;
17773;SDS011;9011;33.236;-97.118;2022-09-21T12:52:53;6.45;;;2.83;;
17773;SDS011;9011;33.236;-97.118;2022-09-21T12:55:26;5.80;;;2.72;;
17773;SDS011;9011;33.236;-97.118;2022-09-21T12:58:03;5.88;;;2.40;;
17773;SDS011;9011;33.236;-97.118;2022-09-21T13:00:44;8.60;;;2.50;;
17773;SDS011;9011;33.236;-97.118;2022-09-21T13:03:19;7.03;;;2.92;;
17773;SDS011;9011;33.236;-97.118;2022-09-21T13:06:01;5.40;;;2.20;;
17773;SDS011;9011;33.236;-97.118;2022-09-21T13:08:41;6.55;;;2.33;;
17773;SDS011;9011;33.236;-97.118;2022-09-21T13:11:12;5.25;;;2.47;;
17773;SDS011;9011;33.236;-97.118;2022-09-21T13:13:46;6.85;;;2.90;;
17773;SDS011;9011;33.236;-97.118;2022-09-21T13:16:25;3.45;;;2.28;;
17773;SDS011;9011;33.236;-97.118;2022-09-21T13:18:56;5.38;;;2.83;;
17773;SDS011;9011;33.236;-97.118;2022-09-21T13:21:27;6.50;;;2.83;;
17773;SDS011;9011;33.236;-97.118;2022-09-21T13:23:57;9.93;;;3.00;;
17773;SDS011;9011;33.236;-97.118;2022-09-21T13:26:33;4.90;;;2.55;;
17773;SDS011;9011;33.236;-97.118;2022-09-21T13:29:04;10.65;;;2.97;;
17773;SDS011;9011;33.236;-97.118;2022-09-21T13:31:53;5.65;;;2.65;;
17773;SDS011;9011;33.236;-97.118;2022-09-21T13:34:24;5.90;;;2.58;;
17773;SDS011;9011;33.236;-97.118;2022-09-21T13:40:04;5.32;;;2.80;;
17773;SDS011;9011;33.236;-97.118;2022-09-21T13:43:18;2.95;;;2.50;;
17773;SDS011;9011;33.236;-97.118;2022-09-21T13:45:52;7.35;;;2.85;;
17773;SDS011;9011;33.236;-97.118;2022-09-21T13:48:24;3.50;;;2.00;;
17773;SDS011;9011;33.236;-97.118;2022-09-21T13:50:55;6.43;;;2.78;;
17773;SDS011;9011;33.236;-97.118;2022-09-21T13:53:29;3.13;;;2.40;;
17773;SDS011;9011;33.236;-97.118;2022-09-21T13:56:07;5.20;;;1.90;;
17773;SDS011;9011;33.236;-97.118;2022-09-21T13:58:44;6.70;;;2.30;;
17773;SDS011;9011;33.236;-97.118;2022-09-21T14:01:15;4.50;;;1.67;;
17773;SDS011;9011;33.236;-97.118;2022-09-21T14:03:48;2.42;;;1.70;;
17773;SDS011;9011;33.236;-97.118;2022-09-21T14:06:19;3.53;;;1.70;;
17773;SDS011;9011;33.236;-97.118;2022-09-21T14:08:52;2.90;;;1.63;;
17773;SDS011;9011;33.236;-97.118;2022-09-21T14:11:28;4.85;;;1.70;;
17773;SDS011;9011;33.236;-97.118;2022-09-21T14:14:00;3.72;;;1.40;;
17773;SDS011;9011;33.236;-97.118;2022-09-21T14:16:53;4.20;;;1.77;;
17773;SDS011;9011;33.236;-97.118;2022-09-21T14:22:39;2.22;;;1.58;;
17773;SDS011;9011;33.236;-97.118;2022-09-21T14:25:27;4.85;;;1.77;;
17773;SDS011;9011;33.236;-97.118;2022-09-21T14:28:13;4.40;;;1.48;;
17773;SDS011;9011;33.236;-97.118;2022-09-21T14:30:54;3.55;;;1.90;;
17773;SDS011;9011;33.236;-97.118;2022-09-21T14:33:31;9.05;;;1.98;;
17773;SDS011;9011;33.236;-97.118;2022-09-21T14:36:07;4.43;;;1.77;;
17773;SDS011;9011;33.236;-97.118;2022-09-21T14:38:44;3.47;;;1.88;;
17773;SDS011;9011;33.236;-97.118;2022-09-21T14:41:17;5.60;;;2.05;;
17773;SDS011;9011;33.236;-97.118;2022-09-21T14:43:49;4.30;;;1.67;;
17773;SDS011;9011;33.236;-97.118;2022-09-21T14:49:29;2.80;;;1.38;;
17773;SDS011;9011;33.236;-97.118;2022-09-21T14:52:12;4.00;;;1.80;;
17773;SDS011;9011;33.236;-97.118;2022-09-21T14:54:54;7.60;;;2.00;;
17773;SDS011;9011;33.236;-97.118;2022-09-21T14:57:37;5.72;;;1.67;;
17773;SDS011;9011;33.236;-97.118;2022-09-21T15:00:24;5.78;;;2.17;;
17773;SDS011;9011;33.236;-97.118;2022-09-21T15:06:09;6.30;;;1.85;;
17773;SDS011;9011;33.236;-97.118;2022-09-21T15:09:04;3.00;;;1.70;;
17773;SDS011;9011;33.236;-97.118;2022-09-21T15:12:16;3.58;;;1.70;;
17773;SDS011;9011;33.236;-97.118;2022-09-21T15:14:48;4.15;;;1.60;;
17773;SDS011;9011;33.236;-97.118;2022-09-21T15:17:25;4.82;;;1.70;;
17773;SDS011;9011;33.236;-97.118;2022-09-21T15:19:56;6.15;;;1.65;;
17773;SDS011;9011;33.236;-97.118;2022-09-21T15:22:25;2.97;;;1.30;;
17773;SDS011;9011;33.236;-97.118;2022-09-21T15:24:56;4.28;;;1.15;;
17773;SDS011;9011;33.236;-97.118;2022-09-21T15:27:30;2.95;;;1.60;;
17773;SDS011;9011;33.236;-97.118;2022-09-21T15:30:01;3.22;;;1.80;;
17773;SDS011;9011;33.236;-97.118;2022-09-21T15:32:33;3.55;;;1.50;;
17773;SDS011;9011;33.236;-97.118;2022-09-21T15:35:04;4.35;;;1.60;;
17773;SDS011;9011;33.236;-97.118;2022-09-21T15:37:42;3.85;;;1.50;;
17773;SDS011;9011;33.236;-97.118;2022-09-21T15:40:15;3.20;;;1.10;;
17773;SDS011;9011;33.236;-97.118;2022-09-21T15:42:59;2.78;;;1.33;;
17773;SDS011;9011;33.236;-97.118;2022-09-21T15:45:29;3.17;;;1.20;;
17773;SDS011;9011;33.236;-97.118;2022-09-21T15:48:01;2.33;;;1.13;;
17773;SDS011;9011;33.236;-97.118;2022-09-21T15:50:37;1.33;;;1.05;;
17773;SDS011;9011;33.236;-97.118;2022-09-21T15:53:08;3.90;;;1.10;;
17773;SDS011;9011;33.236;-97.118;2022-09-21T15:55:45;1.98;;;1.25;;
17773;SDS011;9011;33.236;-97.118;2022-09-21T15:58:28;2.78;;;1.48;;
17773;SDS011;9011;33.236;-97.118;2022-09-21T16:01:00;2.80;;;1.20;;
17773;SDS011;9011;33.236;-97.118;2022-09-21T16:03:30;2.10;;;1.15;;